Station: Longreach

  Atmospheric Gas Attenuation - ITU Rec 676-11   --------------- db/100km ---------------
Date Time Temp RH % AH g/m3 Dew Point Wind Direction Speed kph Gust kph Barometer mB Rainfall Since 9am 24GHz 47GHz 76GHz 122GHz 134GHz 241GHz
27 00:50 25.7 76 18.2 21.1 13 15 1006.8 0 39.2 37.9 72.4 191.5 209.6 728.1
27 00:40 25.8 76 18.3 21.2 15 17 1006.8 0 39.4 38.1 72.7 192.4 210.8 732.4
27 00:30 25.8 76 18.3 21.2 15 19 1006.8 0 39.4 38.1 72.7 192.4 210.8 732.4
27 00:20 26 75 18.26 21.2 15 17 1007 0 39.3 37.9 72.4 191.5 209.7 728.5
27 00:10 26.1 75 18.36 21.3 15 17 1007 0 39.5 38.1 72.7 192.4 210.9 732.7
27 00:00 26.1 75 18.36 21.3 13 15 1006.9 0 39.5 38.1 72.7 192.4 210.9 732.7
26 23:50 26.1 76 18.61 21.5 11 11 1007.2 0 40.1 38.5 73.9 195.5 214.7 745.8
26 23:40 26.1 76 18.61 21.5 15 15 1007.1 0 40.1 38.5 73.9 195.5 214.7 745.8
26 23:30 26.2 75 18.46 21.4 15 19 1007.1 0 39.7 38.2 73.1 193.4 212.1 737.0
26 23:20 26.2 75 18.46 21.4 17 17 1007.1 0 39.7 38.2 73.1 193.4 212.1 737.0
26 23:10 26.3 75 18.57 21.5 13 17 1007.2 0 40.0 38.4 73.5 194.5 213.5 741.8
26 23:00 26.4 74 18.42 21.4 15 19 1007.2 0 39.6 38.0 72.7 192.4 211.0 733.0
26 22:50 26.4 74 18.42 21.4 17 19 1007.1 0 39.6 38.0 72.7 192.4 211.0 733.0
26 22:40 26.4 73 18.17 21.2 15 17 1007.2 0 39.1 37.6 71.6 189.4 207.3 720.1
26 22:30 26.5 73 18.27 21.3 13 17 1007.2 0 39.3 37.7 72.0 190.4 208.5 724.3
26 22:20 26.5 73 18.27 21.3 17 19 1007.1 0 39.3 37.7 72.0 190.4 208.5 724.3
26 22:10 26.6 72 18.12 21.1 13 13 1007.2 0 39.0 37.4 71.2 188.3 206.0 715.7
26 22:00 26.7 71 17.97 21 13 17 1007.1 0 38.6 37.1 70.4 186.3 203.5 707.0
26 21:50 26.7 70 17.72 20.8 11 13 1007.1 0 38.1 36.6 69.3 183.3 199.9 694.4
26 21:40 26.9 69 17.66 20.7 11 11 1007.1 0 38.0 36.5 68.9 182.1 198.5 689.5
26 21:30 27.2 67 17.44 20.5 15 17 1007.2 0 37.5 35.9 67.6 178.9 194.5 675.9
26 21:20 27.4 66 17.37 20.5 15 17 1007.1 0 37.3 35.7 67.1 177.6 193.0 670.6
26 21:10 27.6 64 17.03 20.2 15 15 1007 0 36.6 35.0 65.5 173.2 187.7 652.0
26 21:00 27.7 64 17.12 20.3 15 17 1006.8 0 36.8 35.2 65.8 174.0 188.7 655.5
26 20:50 28 63 17.13 20.3 15 17 1006.8 0 36.7 35.0 65.6 173.4 188.1 653.5
26 20:40 28.1 63 17.23 20.4 15 17 1006.7 0 36.9 35.2 65.9 174.3 189.2 657.5
26 20:30 28.1 63 17.23 20.6 17 22 1006.5 0 37.0 35.2 65.9 174.3 189.2 657.4
26 20:20 28.1 65 17.78 20.9 19 22 1006.4 0 38.1 36.1 68.3 180.6 197.0 684.4
26 20:10 28.2 65 17.87 21 17 19 1006.4 0 38.3 36.2 68.6 181.4 198.0 688.0
26 20:00 28.3 65 17.97 21.1 17 22 1006.1 0 38.5 36.4 68.9 182.3 199.1 692.0
26 19:50 28.2 65 17.87 21.2 15 17 1006.1 0 38.3 36.2 68.6 181.4 198.0 687.9
26 19:40 28.3 65 17.97 21.1 15 17 1006 0 38.5 36.4 68.9 182.3 199.1 691.9
26 19:30 28.4 64 17.79 20.9 11 15 1005.7 0 38.1 36.0 68.0 179.9 196.2 681.9
26 19:20 28.5 63 17.61 20.8 13 13 1005.5 0 37.7 35.6 67.1 177.6 193.4 672.1
26 19:10 28.7 62 17.52 20.7 15 15 1005.3 0 37.5 35.4 66.6 176.1 191.6 665.8
26 19:00 28.9 61 17.43 20.6 15 19 1005.2 0 37.3 35.1 66.0 174.6 189.8 659.7
26 18:50 29.1 59 17.04 20.5 19 20 1005.1 0 36.5 34.4 64.2 169.7 183.9 639.1
26 18:40 29.4 58 17.03 20.5 15 17 1005 0 36.4 34.2 63.9 168.9 183.1 636.1
26 18:30 29.8 55 16.5 19.8 11 15 1004.8 0 35.3 33.2 61.3 162.2 174.9 607.8
26 18:20 29.9 57 17.2 20.5 11 11 1004.6 0 36.7 34.3 64.1 169.7 184.1 640.0
26 18:10 29.8 56 16.8 20.1 9 9 1004.6 0 35.9 33.7 62.6 165.5 178.9 621.8
26 18:00 29.7 57 17.01 20.3 9 11 1004.4 0 36.4 34.1 63.5 168.0 182.0 632.5
26 17:50 29.6 58 17.21 20.5 7 9 1004.3 0 36.8 34.4 64.4 170.4 185.0 642.8
26 17:40 29.2 58 16.84 20.1 11 13 1004.1 0 36.0 34.0 63.2 167.1 180.8 628.3
26 17:30 29.1 59 17.04 20.3 13 15 1004 0 36.5 34.3 64.1 169.6 183.8 638.6
26 17:20 29.1 59 17.04 20.3 13 15 1004 0 36.5 34.3 64.1 169.6 183.8 638.6
26 17:10 29 62 17.81 21 15 15 1004.1 0 38.1 35.7 67.5 178.5 194.8 676.9
26 17:00 28.9 64 18.29 21.4 13 17 1003.9 0 39.1 36.6 69.6 184.3 201.8 701.3
26 16:50 28.9 64 18.29 21.4 11 15 1004.1 0 39.1 36.6 69.6 184.3 201.8 701.4
26 16:40 29.1 61 17.62 20.8 15 17 1004.1 0 37.7 35.3 66.6 176.1 191.8 666.7
26 16:30 29.3 59 17.23 20.5 11 15 1003.8 0 36.9 34.6 64.7 171.2 185.9 646.0
26 16:20 28.9 60 17.14 20.4 13 13 1003.8 0 36.7 34.6 64.7 171.1 185.6 645.0
26 16:10 28.8 58 16.48 19.7 13 15 1003.8 0 35.3 33.5 62.0 163.9 176.8 614.2
26 16:00 29.4 54 15.85 19.1 17 20 1003.7 0 34.0 32.2 58.9 155.8 167.0 580.0
26 15:50 29.3 53 15.48 19 17 19 1003.7 0 33.2 31.7 57.5 152.0 162.3 563.7
26 15:40 29 53 15.23 18.7 24 28 1003.8 0 32.7 31.4 56.7 149.9 159.6 554.4
26 15:30 28.6 60 16.86 20.1 19 28 1003.8 0 36.1 34.2 63.7 168.6 182.5 634.0
26 15:20 28.8 56 15.91 19.4 19 22 1003.8 0 34.1 32.6 59.6 157.7 169.1 587.4
26 15:10 29.6 57 16.92 20.2 20 24 1003.7 0 36.2 33.9 63.2 167.1 180.9 628.7
26 15:00 31.7 43 14.29 17.6 26 35 1003.7 0 30.5 29.0 51.2 135.3 142.5 494.8
26 14:50 32.4 41 14.14 17.8 24 26 1004 0 30.2 28.5 50.2 132.7 139.4 484.2
26 14:40 32.6 40 13.95 17.6 28 35 1003.9 0 29.8 28.2 49.4 130.5 136.7 474.9
26 14:30 33.7 39 14.41 18.2 9 17 1004 0 30.6 28.5 50.4 133.2 140.4 487.7
26 14:20 34.1 40 15.09 18.6 11 13 1004.2 0 32.0 29.4 52.7 139.3 147.9 514.0
26 14:10 34.2 39 14.79 18.3 19 26 1004.4 0 31.4 28.9 51.5 136.2 144.1 500.8
26 14:00 34.3 38 14.49 18.3 19 30 1004.6 0 30.7 28.5 50.4 133.1 140.3 487.6
26 13:50 34.4 39 14.95 18.8 17 26 1004.8 0 31.7 29.1 52.0 137.4 145.7 506.4
26 13:40 33.9 41 15.31 18.8 19 20 1004.9 0 32.5 29.8 53.7 141.9 151.0 525.0
26 13:30 34.2 41 15.55 19.1 17 28 1005.1 0 32.9 30.1 54.4 143.8 153.4 533.4
26 13:20 33.8 40 14.86 18.7 17 26 1005.1 0 31.5 29.2 52.1 137.6 145.7 506.5
26 13:10 33.8 42 15.6 19.1 20 22 1005.3 0 33.1 30.3 54.9 145.0 154.9 538.3
26 13:00 34.1 42 15.85 19.4 19 28 1005.5 0 33.6 30.6 55.6 147.0 157.4 547.2
26 12:50 34.5 43 16.57 20.1 22 26 1005.8 0 35.0 31.6 58.1 153.7 165.6 576.0
26 12:40 34.6 41 15.88 19.8 20 26 1005.9 0 33.6 30.5 55.4 146.5 156.8 545.3
26 12:30 34.1 45 16.98 20.5 19 28 1005.9 0 35.9 32.4 60.0 158.7 171.7 597.2
26 12:20 33.3 45 16.28 20.1 20 26 1006.1 0 34.5 31.6 57.9 153.0 164.5 572.0
26 12:10 32.3 46 15.78 19.5 24 26 1006.3 0 33.6 31.2 56.7 149.8 160.3 557.0
26 12:00 32.6 46 16.04 19.8 24 32 1006.2 0 34.1 31.5 57.5 151.9 162.9 566.4
26 11:50 33 47 16.74 20.2 22 26 1006.4 0 35.5 32.4 59.9 158.5 171.1 595.0
26 11:40 32.3 48 16.47 19.9 19 24 1006.6 0 35.0 32.3 59.4 157.0 169.2 588.1
26 11:30 32.8 46 16.21 19.7 26 35 1006.5 0 34.4 31.7 58.0 153.3 164.7 572.7
26 11:20 33.5 46 16.82 20.6 22 30 1006.7 0 35.6 32.4 59.9 158.4 171.1 594.9
26 11:10 33.6 46 16.91 20.7 26 30 1006.8 0 35.8 32.5 60.2 159.1 172.0 598.3
26 11:00 32.5 48 16.65 20.1 28 35 1006.7 0 35.3 32.5 60.0 158.6 171.1 594.8
26 10:50 33.5 48 17.55 21 30 35 1006.8 0 37.1 33.6 62.8 166.1 180.6 628.1
26 10:40 31.9 50 16.8 20.2 26 30 1007 0 35.7 33.0 61.0 161.4 174.4 606.4
26 10:30 31.6 49 16.2 19.6 26 35 1007.1 0 34.5 32.1 58.9 155.6 167.2 581.3
26 10:20 31.8 51 17.04 20.4 26 28 1007.1 0 36.2 33.4 62.1 164.2 177.8 618.2
26 10:10 31.1 52 16.74 20.1 32 33 1007.2 0 35.7 33.2 61.4 162.4 175.5 609.9
26 10:00 30.6 52 16.29 19.9 28 37 1007.3 0 34.8 32.6 60.0 158.6 170.6 592.9
26 09:50 30.1 55 16.77 20.1 32 33 1007.2 0 35.8 33.6 62.3 164.9 178.2 619.1
26 09:40 30.1 55 16.77 20.1 32 33 1007.1 0 35.8 33.6 62.3 164.8 178.1 619.1
26 09:30 29.7 55 16.41 19.7 30 33 1007.2 0 35.1 33.2 61.2 161.7 174.2 605.4
26 09:20 29 57 16.37 19.6 28 33 1007.2 0 35.1 33.4 61.6 162.7 175.3 608.9
26 09:10 28.9 59 16.86 20.1 33 35 1007.1 0 36.1 34.2 63.7 168.4 182.2 633.0
26 09:00 28.9 59 16.86 20.1 28 35 1006.9 0 36.1 34.2 63.7 168.4 182.2 632.9
26 08:50 29 59 16.95 20.2 1006.9 0.2 36.3 34.3 64.0 169.2 183.2 636.4
26 08:40 28.5 60 16.77 20 32 35 1006.8 0.2 35.9 34.2 63.6 168.2 181.9 631.8
26 08:30 28.9 62 17.71 21.1 28 33 1006.6 0.2 37.9 35.7 67.3 178.0 194.0 674.0
26 08:20 28.2 63 17.32 20.7 30 32 1006.8 0 37.1 35.3 66.2 175.1 190.3 661.1

Last Refresh: 27-Feb-2021 01:30:29

Most of the information presented on this site is sourced from the Bureau of Meteorology.  Copyright in all material sourced from the Bureau of Meteorology resides with the Commonwealth of Australia.